createdAt,value
2024-05-09T00:01:30.570Z,11.18
2024-05-09T00:04:18.465Z,11.17
2024-05-09T00:07:06.325Z,11.44
2024-05-09T00:09:54.151Z,11.27
2024-05-09T00:12:41.942Z,11.01
2024-05-09T00:15:29.766Z,10.92
2024-05-09T00:18:17.811Z,11.16
2024-05-09T00:21:05.861Z,11.10
2024-05-09T00:23:53.710Z,11.20
2024-05-09T00:26:41.530Z,11.11
2024-05-09T00:29:29.390Z,10.95
2024-05-09T00:32:17.364Z,10.73
2024-05-09T00:35:05.273Z,10.73
2024-05-09T00:37:53.112Z,10.69
2024-05-09T00:40:42.881Z,10.60
2024-05-09T00:43:31.498Z,10.49
2024-05-09T00:46:19.309Z,10.72
2024-05-09T00:49:07.210Z,10.70
2024-05-09T00:51:55.070Z,10.82
2024-05-09T00:54:42.876Z,10.85
2024-05-09T00:57:30.693Z,10.89
2024-05-09T01:00:26.812Z,11.00
2024-05-09T01:03:20.375Z,10.94
2024-05-09T01:06:08.434Z,10.95
2024-05-09T01:08:56.226Z,11.27
2024-05-09T01:11:44.133Z,11.23
2024-05-09T01:14:32.115Z,11.08
2024-05-09T01:17:20.076Z,11.10
2024-05-09T01:20:10.888Z,11.22
2024-05-09T01:23:04.219Z,11.20
2024-05-09T01:25:52.286Z,10.83
2024-05-09T01:28:40.152Z,10.95
2024-05-09T01:31:27.970Z,11.07
2024-05-09T01:34:15.792Z,11.02
2024-05-09T01:37:03.614Z,11.07
2024-05-09T01:39:51.424Z,11.13
2024-05-09T01:42:39.236Z,11.06
2024-05-09T01:45:27.037Z,11.15
2024-05-09T01:48:15.065Z,11.16
2024-05-09T01:51:02.955Z,10.95
2024-05-09T01:53:50.782Z,10.98
2024-05-09T01:56:38.641Z,11.00
2024-05-09T01:59:26.578Z,10.69
2024-05-09T02:02:14.687Z,10.80
2024-05-09T02:05:02.803Z,10.88
2024-05-09T02:07:50.755Z,10.63
2024-05-09T02:10:38.600Z,10.76
2024-05-09T02:13:26.407Z,10.66
2024-05-09T02:16:14.203Z,10.38
2024-05-09T02:19:02.093Z,10.53
2024-05-09T02:21:49.948Z,10.47
2024-05-09T02:24:37.759Z,10.61
2024-05-09T02:27:25.567Z,10.77
2024-05-09T02:30:19.093Z,10.85
2024-05-09T02:33:14.677Z,10.44
2024-05-09T02:36:02.803Z,10.17
2024-05-09T02:38:50.579Z,10.19
2024-05-09T02:41:38.421Z,10.51
2024-05-09T02:44:29.333Z,10.15
2024-05-09T02:47:17.328Z,10.35
2024-05-09T02:50:06.220Z,10.05
2024-05-09T02:52:55.816Z,9.72
2024-05-09T02:55:43.686Z,9.93
2024-05-09T02:58:31.528Z,10.03
2024-05-09T03:01:19.354Z,10.19
2024-05-09T03:04:07.298Z,10.42
2024-05-09T03:06:55.200Z,10.21
2024-05-09T03:09:43.022Z,9.97
2024-05-09T03:12:30.906Z,9.70
2024-05-09T03:15:18.770Z,10.18
2024-05-09T03:18:07.167Z,10.28
2024-05-09T03:20:55.267Z,10.06
2024-05-09T03:23:43.226Z,9.95
2024-05-09T03:26:31.183Z,10.05
2024-05-09T03:29:19.082Z,10.28
2024-05-09T03:32:07.022Z,10.14
2024-05-09T03:34:54.943Z,10.11
2024-05-09T03:37:42.761Z,10.20
2024-05-09T03:40:31.180Z,10.10
2024-05-09T03:43:19.370Z,10.14
2024-05-09T03:46:07.318Z,9.91
2024-05-09T03:48:55.208Z,9.99
2024-05-09T03:51:43.026Z,9.81
2024-05-09T03:54:30.838Z,9.96
2024-05-09T03:57:18.653Z,9.75
2024-05-09T04:00:14.432Z,9.87
2024-05-09T04:03:07.594Z,9.97
2024-05-09T04:05:57.807Z,9.80
2024-05-09T04:08:45.654Z,9.97
2024-05-09T04:11:33.549Z,9.75
2024-05-09T04:14:21.572Z,9.76
2024-05-09T04:17:09.429Z,9.63
2024-05-09T04:19:57.299Z,9.58
2024-05-09T04:22:45.215Z,9.69
2024-05-09T04:25:33.052Z,9.47
2024-05-09T04:28:20.881Z,9.26
2024-05-09T04:31:08.636Z,9.51
2024-05-09T04:33:56.659Z,9.19
2024-05-09T04:36:44.800Z,9.45
2024-05-09T04:39:32.642Z,9.15
2024-05-09T04:42:20.433Z,9.29
2024-05-09T04:45:08.240Z,9.31
2024-05-09T04:47:56.288Z,9.40
2024-05-09T04:50:44.333Z,9.14
2024-05-09T04:53:32.260Z,9.37
2024-05-09T04:56:20.172Z,9.37
2024-05-09T04:59:08.026Z,9.24
2024-05-09T05:01:55.910Z,9.38
2024-05-09T05:04:43.932Z,9.57
2024-05-09T05:07:31.960Z,9.57
2024-05-09T05:10:25.457Z,9.44
2024-05-09T05:13:18.574Z,9.64
2024-05-09T05:16:07.080Z,9.40
2024-05-09T05:18:54.997Z,9.30
2024-05-09T05:21:42.871Z,9.09
2024-05-09T05:24:30.659Z,9.38
2024-05-09T05:27:18.498Z,9.58
2024-05-09T05:30:11.760Z,9.67
2024-05-09T05:33:02.665Z,9.56
2024-05-09T05:35:50.616Z,9.41
2024-05-09T05:38:38.528Z,9.58
2024-05-09T05:41:26.388Z,9.49
2024-05-09T05:44:14.313Z,8.96
2024-05-09T05:47:02.161Z,9.11
2024-05-09T05:49:49.992Z,9.40
2024-05-09T05:52:37.922Z,9.23
2024-05-09T05:55:25.760Z,9.54
2024-05-09T05:58:13.586Z,9.22
2024-05-09T06:01:01.429Z,9.07
2024-05-09T06:03:49.470Z,8.93
2024-05-09T06:06:37.375Z,9.29
2024-05-09T06:09:25.184Z,9.75
2024-05-09T06:12:13.124Z,9.83
2024-05-09T06:15:01.036Z,9.83
2024-05-09T06:17:48.908Z,10.01
2024-05-09T06:20:38.293Z,9.93
2024-05-09T06:23:26.529Z,9.96
2024-05-09T06:26:14.433Z,9.92
2024-05-09T06:29:02.279Z,9.71
2024-05-09T06:31:50.130Z,9.71
2024-05-09T06:34:38.078Z,9.70
2024-05-09T06:37:26.174Z,9.93
2024-05-09T06:40:17.465Z,9.71
2024-05-09T06:43:05.540Z,9.86
2024-05-09T06:45:53.356Z,9.85
2024-05-09T06:48:41.532Z,9.86
2024-05-09T06:51:29.512Z,9.71
2024-05-09T06:54:17.301Z,10.17
2024-05-09T06:57:05.095Z,10.08
2024-05-09T06:59:52.895Z,10.08
2024-05-09T07:02:40.931Z,10.30
2024-05-09T07:05:28.906Z,10.19
2024-05-09T07:08:16.865Z,10.45
2024-05-09T07:11:04.849Z,10.54
2024-05-09T07:13:52.749Z,10.48
2024-05-09T07:16:40.578Z,10.67
2024-05-09T07:19:28.471Z,10.78
2024-05-09T07:22:16.428Z,11.06
2024-05-09T07:25:04.219Z,11.16
2024-05-09T07:27:52.203Z,11.16
2024-05-09T07:30:40.151Z,10.95
2024-05-09T07:33:28.065Z,10.89
2024-05-09T07:36:16.075Z,11.16
2024-05-09T07:39:03.985Z,11.29
2024-05-09T07:41:51.809Z,11.40
2024-05-09T07:44:39.691Z,11.42
2024-05-09T07:53:36.905Z,12.05
2024-05-09T07:56:17.610Z,12.03
2024-05-09T07:59:05.805Z,12.08
2024-05-09T08:01:53.671Z,12.32
2024-05-09T08:04:41.669Z,12.70
2024-05-09T08:07:29.572Z,12.94
2024-05-09T08:10:22.133Z,13.01
2024-05-09T08:13:12.792Z,13.03
2024-05-09T08:16:00.862Z,12.99
2024-05-09T08:18:48.819Z,12.49
2024-05-09T08:21:36.735Z,12.65
2024-05-09T08:24:24.564Z,12.80
2024-05-09T08:27:12.360Z,12.71
2024-05-09T08:30:00.599Z,12.83
2024-05-09T08:32:48.758Z,13.05
2024-05-09T08:35:36.596Z,13.17
2024-05-09T08:38:24.395Z,12.89
2024-05-09T08:41:12.194Z,12.99
2024-05-09T08:43:59.980Z,13.20
2024-05-09T08:46:47.799Z,13.12
2024-05-09T08:49:37.633Z,13.21
2024-05-09T08:52:25.621Z,13.51
2024-05-09T08:55:13.579Z,13.36
2024-05-09T08:58:01.519Z,13.77
2024-05-09T09:00:49.848Z,13.94
2024-05-09T09:03:37.994Z,14.18
2024-05-09T09:06:25.941Z,14.48
2024-05-09T09:09:13.736Z,14.70
2024-05-09T09:12:01.615Z,14.31
2024-05-09T09:14:49.430Z,14.64
2024-05-09T09:17:37.345Z,14.62
2024-05-09T09:20:33.205Z,14.39
2024-05-09T09:23:23.870Z,14.50
2024-05-09T09:26:11.673Z,14.55
2024-05-09T09:28:59.489Z,14.85
2024-05-09T09:31:47.267Z,15.38
2024-05-09T09:34:35.172Z,15.28
2024-05-09T09:37:23.068Z,15.36
2024-05-09T09:43:00.742Z,15.35
2024-05-09T09:45:48.636Z,15.40
2024-05-09T09:48:36.548Z,15.07
2024-05-09T09:51:24.431Z,14.69
2024-05-09T09:54:12.232Z,14.42
2024-05-09T09:57:00.042Z,14.70
2024-05-09T09:59:47.856Z,15.38
2024-05-09T10:02:35.764Z,15.44
2024-05-09T10:05:23.875Z,15.50
2024-05-09T10:08:11.850Z,15.24
2024-05-09T10:10:59.696Z,15.39
2024-05-09T10:13:47.555Z,15.63
2024-05-09T10:16:35.349Z,15.37
2024-05-09T10:19:23.276Z,14.93
2024-05-09T10:22:11.192Z,14.06
2024-05-09T10:24:59.208Z,14.55
2024-05-09T10:27:47.450Z,14.91
2024-05-09T10:30:36.405Z,15.21
2024-05-09T10:33:24.718Z,15.27
2024-05-09T10:36:12.606Z,15.43
2024-05-09T10:39:00.416Z,15.14
2024-05-09T10:41:48.331Z,15.26
2024-05-09T10:44:36.140Z,15.31
2024-05-09T10:47:24.025Z,15.03
2024-05-09T10:50:18.578Z,14.93
2024-05-09T10:53:13.233Z,15.33
2024-05-09T10:56:01.027Z,15.28
2024-05-09T10:58:48.818Z,15.25
2024-05-09T11:01:36.764Z,15.59
2024-05-09T11:04:24.640Z,15.12
2024-05-09T11:07:12.572Z,15.26
2024-05-09T11:10:00.437Z,14.61
2024-05-09T11:12:48.322Z,14.65
2024-05-09T11:15:36.177Z,14.43
2024-05-09T11:18:25.482Z,14.76
2024-05-09T11:21:14.355Z,14.94
2024-05-09T11:24:02.168Z,14.92
2024-05-09T11:26:49.966Z,15.16
2024-05-09T11:29:37.752Z,15.25
2024-05-09T11:32:25.655Z,14.89
2024-05-09T11:35:13.548Z,15.15
2024-05-09T11:38:01.369Z,15.24
2024-05-09T11:40:49.189Z,15.36
2024-05-09T11:43:37.014Z,15.95
2024-05-09T11:46:24.930Z,15.96
2024-05-09T11:49:12.965Z,15.83
2024-05-09T11:52:00.955Z,15.94
2024-05-09T11:54:48.814Z,15.79
2024-05-09T11:57:36.683Z,16.23
2024-05-09T12:00:33.934Z,16.17
2024-05-09T12:03:24.973Z,16.58
2024-05-09T12:06:12.857Z,16.79
2024-05-09T12:09:00.662Z,16.51
2024-05-09T12:11:48.495Z,16.87
2024-05-09T12:14:36.386Z,17.24
2024-05-09T12:17:24.259Z,17.12
2024-05-09T12:20:21.076Z,17.17
2024-05-09T12:23:13.620Z,16.43
2024-05-09T12:26:01.492Z,16.08
2024-05-09T12:28:49.321Z,16.24
2024-05-09T12:31:37.223Z,16.78
2024-05-09T12:34:25.053Z,16.67
2024-05-09T12:37:12.928Z,16.68
2024-05-09T12:40:00.779Z,16.84
2024-05-09T12:42:48.664Z,16.95
2024-05-09T12:45:36.585Z,16.78
2024-05-09T12:48:24.645Z,16.72
2024-05-09T12:51:12.524Z,17.00
2024-05-09T12:54:00.342Z,16.26
2024-05-09T12:56:48.200Z,16.58
2024-05-09T12:59:35.990Z,16.58
2024-05-09T13:02:23.872Z,16.87
2024-05-09T13:05:11.977Z,17.05
2024-05-09T13:07:59.813Z,16.90
2024-05-09T13:10:47.811Z,17.15
2024-05-09T13:13:35.716Z,17.15
2024-05-09T13:16:23.582Z,17.17
2024-05-09T13:19:11.467Z,17.22
2024-05-09T13:21:59.307Z,17.00
2024-05-09T13:24:47.222Z,17.21
2024-05-09T13:27:35.099Z,17.12
2024-05-09T13:30:29.730Z,17.42
2024-05-09T13:33:26.308Z,17.05
2024-05-09T13:36:14.189Z,16.83
2024-05-09T13:39:01.997Z,16.85
2024-05-09T13:41:49.778Z,16.96
2024-05-09T13:44:37.582Z,17.14
2024-05-09T13:47:25.480Z,17.12
2024-05-09T13:50:20.598Z,17.21
2024-05-09T13:53:15.922Z,17.06
2024-05-09T13:56:03.716Z,16.74
2024-05-09T13:58:51.584Z,16.46
2024-05-09T14:01:39.430Z,17.00
2024-05-09T14:04:27.425Z,16.74
2024-05-09T14:07:15.495Z,16.77
2024-05-09T14:10:05.222Z,16.92
2024-05-09T14:12:54.353Z,17.13
2024-05-09T14:15:42.281Z,17.06
2024-05-09T14:18:30.246Z,16.54
2024-05-09T14:21:18.129Z,16.56
2024-05-09T14:24:05.954Z,16.73
2024-05-09T14:26:53.760Z,16.57
2024-05-09T14:29:41.568Z,17.17
2024-05-09T14:32:29.479Z,16.92
2024-05-09T14:35:17.349Z,17.27
2024-05-09T14:38:05.180Z,17.11
2024-05-09T14:40:53.294Z,16.77
2024-05-09T14:43:41.265Z,16.87
2024-05-09T14:46:29.124Z,16.86
2024-05-09T14:49:17.036Z,16.54
2024-05-09T14:52:04.938Z,16.65
2024-05-09T14:54:59.922Z,16.65
2024-05-09T14:57:48.708Z,17.08
2024-05-09T15:00:37.845Z,16.86
2024-05-09T15:03:27.026Z,16.76
2024-05-09T15:06:15.020Z,16.65
2024-05-09T15:09:02.884Z,16.81
2024-05-09T15:11:50.737Z,16.84
2024-05-09T15:14:38.545Z,17.07
2024-05-09T15:17:26.423Z,16.92
2024-05-09T15:20:17.544Z,16.99
2024-05-09T15:23:11.569Z,17.17
2024-05-09T15:25:59.391Z,17.30
2024-05-09T15:28:47.173Z,17.35
2024-05-09T15:31:35.064Z,17.16
2024-05-09T15:34:22.919Z,17.00
2024-05-09T15:37:10.804Z,16.73
2024-05-09T15:39:58.838Z,16.73
2024-05-09T15:42:46.719Z,16.74
2024-05-09T15:45:34.835Z,16.99
2024-05-09T15:48:22.799Z,16.85
2024-05-09T15:51:10.729Z,16.96
2024-05-09T15:53:58.586Z,17.09
2024-05-09T15:56:46.365Z,17.20
2024-05-09T15:59:34.173Z,17.26
2024-05-09T16:02:22.099Z,17.36
2024-05-09T16:05:10.133Z,17.39
2024-05-09T16:07:57.945Z,17.31
2024-05-09T16:10:46.762Z,17.21
2024-05-09T16:13:34.983Z,17.32
2024-05-09T16:16:22.949Z,17.55
2024-05-09T16:19:10.961Z,17.37
2024-05-09T16:21:58.831Z,17.33
2024-05-09T16:24:46.722Z,17.57
2024-05-09T16:27:34.571Z,17.55
2024-05-09T16:30:28.310Z,17.12
2024-05-09T16:33:22.284Z,17.35
2024-05-09T16:36:10.160Z,17.49
2024-05-09T16:38:57.983Z,17.63
2024-05-09T16:41:45.792Z,17.55
2024-05-09T16:44:35.639Z,17.68
2024-05-09T16:47:23.604Z,17.65
2024-05-09T16:50:15.787Z,17.16
2024-05-09T16:53:07.263Z,17.07
2024-05-09T16:55:55.280Z,16.99
2024-05-09T16:58:43.060Z,17.14
2024-05-09T17:01:30.936Z,17.08
2024-05-09T17:04:18.864Z,17.46
2024-05-09T17:07:06.888Z,17.40
2024-05-09T17:09:54.725Z,17.32
2024-05-09T17:12:42.651Z,17.71
2024-05-09T17:15:30.624Z,17.47
2024-05-09T17:18:18.532Z,17.45
2024-05-09T17:21:06.435Z,17.38
2024-05-09T17:23:54.256Z,17.72
2024-05-09T17:26:42.095Z,17.50
2024-05-09T17:29:29.903Z,17.60
2024-05-09T17:32:17.761Z,17.30
2024-05-09T17:35:05.659Z,17.53
2024-05-09T17:37:53.471Z,17.52
2024-05-09T17:40:41.294Z,17.56
2024-05-09T17:43:29.304Z,17.66
2024-05-09T17:46:17.290Z,17.40
2024-05-09T17:49:05.209Z,17.33
2024-05-09T17:51:53.115Z,17.21
2024-05-09T17:54:40.938Z,17.11
2024-05-09T17:57:28.750Z,17.01
2024-05-09T18:00:24.635Z,17.09
2024-05-09T18:03:21.883Z,17.24
2024-05-09T18:06:09.754Z,17.10
2024-05-09T18:08:57.576Z,17.06
2024-05-09T18:11:45.415Z,16.86
2024-05-09T18:14:33.211Z,16.88
2024-05-09T18:17:23.638Z,16.96
2024-05-09T18:20:19.697Z,16.90
2024-05-09T18:23:17.105Z,16.95
2024-05-09T18:26:05.875Z,16.59
2024-05-09T18:28:53.686Z,16.24
2024-05-09T18:31:41.491Z,16.36
2024-05-09T18:34:29.422Z,16.40
2024-05-09T18:37:17.474Z,16.30
2024-05-09T18:40:05.792Z,15.96
2024-05-09T18:42:53.680Z,16.04
2024-05-09T18:45:41.601Z,16.09
2024-05-09T18:48:29.686Z,16.15
2024-05-09T18:51:17.567Z,16.08
2024-05-09T18:54:05.357Z,16.20
2024-05-09T18:56:53.234Z,16.08
2024-05-09T18:59:41.026Z,16.02
2024-05-09T19:02:28.990Z,15.83
2024-05-09T19:05:17.060Z,15.80
2024-05-09T19:08:04.907Z,15.70
2024-05-09T19:10:52.851Z,15.58
2024-05-09T19:13:40.758Z,15.64
2024-05-09T19:16:28.732Z,15.57
2024-05-09T19:19:16.747Z,15.37
2024-05-09T19:22:04.688Z,15.40
2024-05-09T19:24:52.530Z,15.46
2024-05-09T19:27:40.340Z,15.54
2024-05-09T19:30:36.884Z,15.51
2024-05-09T19:33:28.705Z,15.42
2024-05-09T19:36:16.510Z,15.58
2024-05-09T19:39:04.308Z,15.58
2024-05-09T19:41:52.104Z,15.54
2024-05-09T19:44:39.999Z,15.32
2024-05-09T19:47:27.915Z,15.04
2024-05-09T19:50:22.478Z,15.06
2024-05-09T19:53:14.706Z,15.18
2024-05-09T19:56:02.719Z,15.16
2024-05-09T19:58:50.500Z,14.94
2024-05-09T20:01:38.479Z,14.90
2024-05-09T20:04:26.590Z,14.85
2024-05-09T20:07:14.613Z,14.90
2024-05-09T20:10:05.061Z,14.98
2024-05-09T20:12:53.116Z,14.90
2024-05-09T20:15:41.058Z,14.90
2024-05-09T20:18:28.977Z,14.82
2024-05-09T20:21:16.852Z,14.70
2024-05-09T20:24:04.612Z,14.60
2024-05-09T20:26:52.428Z,14.50
2024-05-09T20:29:40.251Z,14.51
2024-05-09T20:32:28.190Z,14.49
2024-05-09T20:35:16.040Z,14.41
2024-05-09T20:38:04.444Z,14.45
2024-05-09T20:40:52.773Z,14.33
2024-05-09T20:43:40.596Z,14.47
2024-05-09T20:46:28.399Z,14.63
2024-05-09T20:49:16.422Z,14.81
2024-05-09T20:52:04.533Z,14.76
2024-05-09T20:54:52.374Z,14.84
2024-05-09T20:57:40.201Z,14.79
2024-05-09T21:00:35.417Z,15.02
2024-05-09T21:03:27.979Z,14.81
2024-05-09T21:06:15.807Z,14.97
2024-05-09T21:09:03.603Z,15.01
2024-05-09T21:11:51.491Z,15.17
2024-05-09T21:14:39.275Z,15.13
2024-05-09T21:17:27.228Z,15.13
2024-05-09T21:20:20.207Z,15.15
2024-05-09T21:23:11.627Z,15.14
2024-05-09T21:25:59.404Z,15.13
2024-05-09T21:28:47.159Z,15.14
2024-05-09T21:31:35.031Z,15.04
2024-05-09T21:34:22.991Z,14.97
2024-05-09T21:37:11.090Z,14.88
2024-05-09T21:39:58.940Z,14.77
2024-05-09T21:42:46.784Z,14.71
2024-05-09T21:45:34.752Z,14.61
2024-05-09T21:48:22.686Z,14.52
2024-05-09T21:51:10.538Z,14.43
2024-05-09T21:53:58.378Z,14.43
2024-05-09T21:56:46.174Z,14.40
2024-05-09T21:59:33.951Z,14.42
2024-05-09T22:02:21.890Z,14.36
2024-05-09T22:05:10.022Z,14.44
2024-05-09T22:07:57.982Z,14.46
2024-05-09T22:10:45.952Z,14.49
2024-05-09T22:13:34.810Z,14.36
2024-05-09T22:16:22.850Z,14.29
2024-05-09T22:19:10.835Z,14.22
2024-05-09T22:21:58.707Z,14.20
2024-05-09T22:24:46.554Z,14.16
2024-05-09T22:27:34.394Z,14.00
2024-05-09T22:33:12.261Z,13.84
2024-05-09T22:36:00.532Z,13.83
2024-05-09T22:38:48.330Z,13.83
2024-05-09T22:41:36.117Z,13.86
2024-05-09T22:44:23.895Z,13.81
2024-05-09T22:47:11.771Z,13.63
2024-05-09T22:49:59.549Z,13.49
2024-05-09T22:52:47.370Z,13.42
2024-05-09T22:55:35.148Z,13.38
2024-05-09T22:58:23.304Z,13.34
2024-05-09T23:01:11.448Z,13.34
2024-05-09T23:03:59.532Z,13.32
2024-05-09T23:06:47.497Z,13.32
2024-05-09T23:09:35.354Z,13.34
2024-05-09T23:12:23.176Z,13.31
2024-05-09T23:15:10.966Z,13.32
2024-05-09T23:17:59.153Z,13.33
2024-05-09T23:20:47.034Z,13.39
2024-05-09T23:23:34.838Z,13.34
2024-05-09T23:26:22.736Z,13.37
2024-05-09T23:29:10.512Z,13.42
2024-05-09T23:31:58.411Z,13.39
2024-05-09T23:34:46.207Z,13.38
2024-05-09T23:37:34.017Z,13.40
2024-05-09T23:40:23.455Z,13.34
2024-05-09T23:43:12.600Z,13.37
2024-05-09T23:46:00.858Z,13.31
2024-05-09T23:48:48.760Z,13.24
2024-05-09T23:51:36.648Z,13.17
2024-05-09T23:54:24.470Z,13.06
2024-05-09T23:57:12.263Z,13.00
